• Join FlightAware (Why Join?)
  • Login
  • US Flag 
12:41AM EST


 

Airport Tracker/Info


-or-


 

Live Flight TrackerFlight Track Log ✈ GLA182 ✈ 26-Apr-2013 ✈ KMSP - KATY

Flight Track Log - Related Links

Times and Time Zones

All times are in EDT time to prevent confusion due to time zone crossing. See the GLA182 flight status page for this flight to view local times or setup timezone preferences in your user account.

Time Position Orientation Groundspeed Altitude Reporting Facility
EDT Latitude Longitude Course Direction KTS MPH feet Rate Location/Type
08:40AM 44.8833 -93.1667 85° East 170 196 2,200  Level Minneapolis TRACON
08:40AM 44.8858 -93.1222 85° East 189 217 3,200 1,920 Climbing Minneapolis Center
08:41AM 44.8858 -93.0378 90° East 213 245 5,400 1,800 Climbing Minneapolis Center
08:43AM 44.9342 -93.0089 23° Northeast 209 241 7,000 1,080 Climbing Minneapolis Center
08:44AM 44.9956 -93.0114 358° North 225 259 7,700 1,200 Climbing Minneapolis Center
08:45AM 45.0467 -93.0414 337° Northwest 207 238 9,500 1,680 Climbing Minneapolis Center
08:46AM 45.0625 -93.1092 288° West 191 220 11,200 1,200 Climbing Minneapolis Center
08:47AM 45.0686 -93.1842 277° West 196 226 12,000 420 Climbing Minneapolis Center
08:48AM 45.0756 -93.2903 275° West 231 266 12,100 60 Climbing Minneapolis Center
08:49AM 45.0833 -93.3825 277° West 239 275 12,200  Climbing Minneapolis Center
08:50AM 45.0922 -93.4761 278° West 242 278 12,100 -60 Descending Minneapolis Center
08:51AM 45.0983 -93.5703 275° West 241 277 12,100  Level Minneapolis Center
08:52AM 45.0961 -93.6644 268° West 241 277 12,100 -60 Level Minneapolis Center
08:53AM 45.0939 -93.7600 268° West 245 282 12,000  Descending Minneapolis Center
08:54AM 45.0917 -93.8728 268° West 241 277 12,200  Climbing Minneapolis Center
08:55AM 45.0878 -93.9869 267° West 246 283 12,100 60 Descending Minneapolis Center
08:56AM 45.0858 -94.0825 268° West 247 284 12,400 660 Climbing Minneapolis Center
08:57AM 45.0822 -94.1697 267° West 224 258 13,500 1,260 Climbing Minneapolis Center
08:58AM 45.0767 -94.2544 265° West 217 250 15,000 1,140 Climbing Minneapolis Center
08:59AM 45.0717 -94.3389 265° West 217 250 15,900 480 Climbing Minneapolis Center
09:00AM 45.0622 -94.4328 262° West 241 277 16,000  Climbing Minneapolis Center
09:01AM 45.0483 -94.5544 261° West 260 299 16,000  Level Minneapolis Center
09:02AM 45.0431 -94.6556 266° West 253 291 16,000  Level Minneapolis Center
09:03AM 45.0431 -94.7522 270° West 248 285 16,000  Level Minneapolis Center
09:04AM 45.0425 -94.8478 270° West 245 282 16,100  Climbing Minneapolis Center
09:05AM 45.0411 -94.9428 269° West 243 280 16,000 -60 Descending Minneapolis Center
09:06AM 45.0406 -95.0372 270° West 242 278 16,000  Level Minneapolis Center
09:07AM 45.0425 -95.1322 272° West 242 278 16,100  Climbing Minneapolis Center
09:08AM 45.0403 -95.2278 268° West 244 281 16,100 -60 Level Minneapolis Center
09:09AM 45.0378 -95.3419 268° West 243 280 16,000  Descending Minneapolis Center
09:10AM 45.0375 -95.4381 270° West 245 282 16,100  Climbing Minneapolis Center
09:12AM 45.0364 -95.5511 269° West 243 280 16,000  Descending Minneapolis Center
09:13AM 45.0344 -95.6464 268° West 243 280 16,100  Climbing Minneapolis Center
09:14AM 45.0336 -95.7403 269° West 241 277 16,000 -60 Descending Minneapolis Center
09:15AM 45.0297 -95.8350 267° West 242 278 16,000  Level Minneapolis Center
09:16AM 45.0264 -95.9297 267° West 242 278 16,000 -240 Level Minneapolis Center
09:17AM 45.0239 -96.0047 267° West 241 277 15,600 -1,140 Descending Minneapolis Center
09:18AM 45.0239 -96.1325 270° West 235 270 13,700 -1,560 Descending Minneapolis Center
09:19AM 45.0244 -96.2228 271° West 232 267 12,500 -1,260 Descending Minneapolis Center
09:20AM 45.0225 -96.3094 268° West 226 260 11,200 -1,200 Descending Minneapolis Center
09:21AM 45.0175 -96.3978 265° West 226 260 10,100 -1,080 Descending Minneapolis Center
09:22AM 45.0156 -96.4675 268° West 226 260 9,100 -1,080 Descending Minneapolis Center
09:23AM 45.0119 -96.5703 267° West 223 257 7,900 -1,080 Descending Minneapolis Center
09:24AM 45.0072 -96.6347 264° West 218 251 7,000 -900 Descending Minneapolis Center